Time;durP1;ratioP1;P1;durP2;ratioP2;P2;SDS_P1;SDS_P2;PMS_P1;PMS_P2;Temp;Humidity;BMP_temperature;BMP_pressure;BME280_temperature;BME280_humidity;BME280_pressure;Samples;Min_cycle;Max_cycle;Signal;HPM_P1;HPM_P2
2023/11/24 00:01:34;;;;;;;;;;;;;;;;;;6284445;28;20010;-86
2023/11/24 00:04:34;;;;;;;;;;;;;;;;;;6273114;28;19917;-87
2023/11/24 00:07:34;;;;;;;;;;;;;;;;;;6280808;28;19923;-86
2023/11/24 00:10:36;;;;;;;;;;;;;;;;;;6277166;28;19964;-86
2023/11/24 00:13:36;;;;;;;;;;;;;;;;;;6282679;28;19921;-87
2023/11/24 00:16:38;;;;;;;;;;;;;;;;;;6297437;28;20400;-87
2023/11/24 00:19:38;;;;;;;;;;;;;;;;;;6277509;28;19942;-87
2023/11/24 00:22:39;;;;;;;;;;;;;;;;;;6278686;28;19924;-86
2023/11/24 00:25:39;;;;;;;;;;;;;;;;;;6285363;28;20403;-86
2023/11/24 00:28:39;;;;;;;;;;;;;;;;;;6284445;28;19927;-86
2023/11/24 00:31:39;;;;;;;;;;;;;;;;;;6280619;28;19921;-87
2023/11/24 00:34:39;;;;;;;;;;;;;;;;;;6278306;28;19983;-86
2023/11/24 00:37:40;;;;;;;;;;;;;;;;;;6279317;28;19970;-87
2023/11/24 00:40:40;;;;;;;;;;;;;;;;;;6278521;28;19924;-86
2023/11/24 00:43:41;;;;;;;;;;;;;;;;;;6284985;28;19920;-86
2023/11/24 00:46:41;;;;;;;;;;;;;;;;;;6279132;28;19916;-86
2023/11/24 00:49:42;;;;;;;;;;;;;;;;;;6282145;28;19927;-88
2023/11/24 00:52:42;;;;;;;;;;;;;;;;;;6280149;28;19921;-86
2023/11/24 00:55:43;;;;;;;;;;;;;;;;;;6285122;28;20319;-86
2023/11/24 00:58:46;;;;;;;;;;;;;;;;;;6275078;28;19913;-86
2023/11/24 01:01:46;;;;;;;;;;;;;;;;;;6278489;28;20007;-86
2023/11/24 01:04:47;;;;;;;;;;;;;;;;;;6282338;28;19923;-86
2023/11/24 01:07:48;;;;;;;;;;;;;;;;;;6276452;28;19912;-86
2023/11/24 01:10:49;;;;;;;;;;;;;;;;;;6285524;28;19920;-85
2023/11/24 01:13:49;;;;;;;;;;;;;;;;;;6299416;28;19943;-86
2023/11/24 01:16:49;;;;;;;;;;;;;;;;;;6287481;28;21643;-86
2023/11/24 01:19:49;;;;;;;;;;;;;;;;;;6284394;28;19916;-86
2023/11/24 01:22:49;;;;;;;;;;;;;;;;;;6272124;28;19923;-85
2023/11/24 01:25:49;;;;;;;;;;;;;;;;;;6274837;28;19966;-86
2023/11/24 01:28:49;;;;;;;;;;;;;;;;;;6274503;28;19920;-87
2023/11/24 01:31:50;;;;;;;;;;;;;;;;;;6279700;28;19920;-86
2023/11/24 01:34:50;;;;;;;;;;;;;;;;;;6277340;28;19912;-85
2023/11/24 01:37:50;;;;;;;;;;;;;;;;;;6278547;28;19923;-86
2023/11/24 01:40:50;;;;;;;;;;;;;;;;;;6290819;28;19932;-86
2023/11/24 01:43:50;;;;;;;;;;;;;;;;;;6273100;28;19917;-85
2023/11/24 01:46:50;;;;;;;;;;;;;;;;;;6252464;28;20326;-86
2023/11/24 01:49:51;;;;;;;;;;;;;;;;;;6253230;28;19920;-85
2023/11/24 01:52:51;;;;;;;;;;;;;;;;;;6281947;28;19928;-85
2023/11/24 01:55:51;;;;;;;;;;;;;;;;;;6254656;28;19957;-86
2023/11/24 01:58:52;;;;;;;;;;;;;;;;;;6257461;28;19928;-86
2023/11/24 02:01:52;;;;;;;;;;;;;;;;;;6252850;28;19917;-86
2023/11/24 02:04:52;;;;;;;;;;;;;;;;;;6256074;28;19999;-88
2023/11/24 02:07:52;;;;;;;;;;;;;;;;;;6267322;28;19913;-85
2023/11/24 02:10:53;;;;;;;;;;;;;;;;;;6253289;28;19917;-85
2023/11/24 02:13:53;;;;;;;;;;;;;;;;;;6253628;28;19920;-86
2023/11/24 02:16:53;;;;;;;;;;;;;;;;;;6256853;28;19919;-87
2023/11/24 02:19:56;;;;;;;;;;;;;;;;;;6261574;28;20444;-86
2023/11/24 02:22:57;;;;;;;;;;;;;;;;;;6258608;28;19913;-85
2023/11/24 02:25:57;;;;;;;;;;;;;;;;;;6256156;28;19923;-85
2023/11/24 02:28:57;;;;;;;;;;;;;;;;;;6255942;28;19924;-86
2023/11/24 02:31:57;;;;;;;;;;;;;;;;;;6255057;28;19928;-85
2023/11/24 02:34:57;;;;;;;;;;;;;;;;;;6254297;28;19921;-85
2023/11/24 02:37:57;;;;;;;;;;;;;;;;;;6255048;28;19913;-85
2023/11/24 02:40:57;;;;;;;;;;;;;;;;;;6258117;28;19921;-85
2023/11/24 02:43:57;;;;;;;;;;;;;;;;;;6247552;28;19939;-85
2023/11/24 02:46:58;;;;;;;;;;;;;;;;;;6253430;28;19975;-85
2023/11/24 02:49:58;;;;;;;;;;;;;;;;;;6254569;28;20413;-84
2023/11/24 02:52:58;;;;;;;;;;;;;;;;;;6251635;28;20326;-85
2023/11/24 02:55:59;;;;;;;;;;;;;;;;;;6255151;28;20003;-85
2023/11/24 02:58:59;;;;;;;;;;;;;;;;;;6253160;28;19917;-85
2023/11/24 03:01:59;;;;;;;;;;;;;;;;;;6253243;28;19920;-85
2023/11/24 03:04:59;;;;;;;;;;;;;;;;;;6268953;28;19917;-85
2023/11/24 03:07:59;;;;;;;;;;;;;;;;;;6256254;28;19913;-85
2023/11/24 03:11:03;;;;;;;;;;;;;;;;;;6256689;28;19917;-86
2023/11/24 03:14:04;;;;;;;;;;;;;;;;;;6252462;28;20399;-85
2023/11/24 03:17:04;;;;;;;;;;;;;;;;;;6254896;28;19914;-85
2023/11/24 03:20:04;;;;;;;;;;;;;;;;;;6252436;28;19920;-85
2023/11/24 03:23:04;;;;;;;;;;;;;;;;;;6260095;28;20070;-86
2023/11/24 03:26:04;;;;;;;;;;;;;;;;;;6254637;28;19917;-85
2023/11/24 03:29:05;;;;;;;;;;;;;;;;;;6255732;28;20567;-85
2023/11/24 03:32:06;;;;;;;;;;;;;;;;;;6258354;28;19917;-85
2023/11/24 03:35:06;;;;;;;;;;;;;;;;;;6268977;28;20366;-86
2023/11/24 03:38:07;;;;;;;;;;;;;;;;;;6255686;28;19913;-84
2023/11/24 03:41:07;;;;;;;;;;;;;;;;;;6257870;28;19921;-85
2023/11/24 03:44:07;;;;;;;;;;;;;;;;;;6261594;28;20352;-85
2023/11/24 03:47:08;;;;;;;;;;;;;;;;;;6256854;28;19919;-85
2023/11/24 03:50:08;;;;;;;;;;;;;;;;;;6261863;28;19916;-85
2023/11/24 03:53:08;;;;;;;;;;;;;;;;;;6258753;28;19924;-85
2023/11/24 03:56:08;;;;;;;;;;;;;;;;;;6260734;28;21058;-85
2023/11/24 03:59:08;;;;;;;;;;;;;;;;;;6258469;28;19921;-85
2023/11/24 04:02:08;;;;;;;;;;;;;;;;;;6262225;28;19916;-85
2023/11/24 04:05:09;;;;;;;;;;;;;;;;;;6257885;28;19913;-86
2023/11/24 04:08:10;;;;;;;;;;;;;;;;;;6253871;28;19913;-85
2023/11/24 04:11:10;;;;;;;;;;;;;;;;;;6279677;28;19964;-85
2023/11/24 04:14:11;;;;;;;;;;;;;;;;;;6262789;28;20393;-85
2023/11/24 04:17:11;;;;;;;;;;;;;;;;;;6264467;28;19919;-85
2023/11/24 04:20:12;;;;;;;;;;;;;;;;;;6258813;28;20366;-85
2023/11/24 04:23:13;;;;;;;;;;;;;;;;;;6257138;28;19980;-84
2023/11/24 04:26:13;;;;;;;;;;;;;;;;;;6255418;28;20385;-85
2023/11/24 04:29:14;;;;;;;;;;;;;;;;;;6256729;28;19925;-85
2023/11/24 04:32:14;;;;;;;;;;;;;;;;;;6256620;28;19917;-85
2023/11/24 04:35:14;;;;;;;;;;;;;;;;;;6260176;28;19966;-85
2023/11/24 04:38:14;;;;;;;;;;;;;;;;;;6261284;28;19943;-85
2023/11/24 04:41:15;;;;;;;;;;;;;;;;;;6262175;28;19932;-86
2023/11/24 04:44:15;;;;;;;;;;;;;;;;;;6257474;28;20031;-86
2023/11/24 04:47:16;;;;;;;;;;;;;;;;;;6257923;28;19916;-85
2023/11/24 04:50:16;;;;;;;;;;;;;;;;;;6253130;28;19917;-85
2023/11/24 04:53:16;;;;;;;;;;;;;;;;;;6272404;28;20338;-85
2023/11/24 04:56:17;;;;;;;;;;;;;;;;;;6257693;28;20000;-85
2023/11/24 04:59:17;;;;;;;;;;;;;;;;;;6258163;28;20387;-84
2023/11/24 05:02:17;;;;;;;;;;;;;;;;;;6255982;28;20248;-85
2023/11/24 05:05:17;;;;;;;;;;;;;;;;;;6256182;28;20313;-84
2023/11/24 05:08:17;;;;;;;;;;;;;;;;;;6257304;28;19939;-84
2023/11/24 05:11:18;;;;;;;;;;;;;;;;;;6260015;28;20297;-84
2023/11/24 05:14:18;;;;;;;;;;;;;;;;;;6260917;28;19913;-85
2023/11/24 05:17:19;;;;;;;;;;;;;;;;;;6253747;28;19919;-86
2023/11/24 05:20:23;;;;;;;;;;;;;;;;;;6256423;28;19917;-87
2023/11/24 05:23:24;;;;;;;;;;;;;;;;;;6260393;28;19913;-85
2023/11/24 05:26:24;;;;;;;;;;;;;;;;;;6261355;28;20066;-85
2023/11/24 05:29:24;;;;;;;;;;;;;;;;;;6254119;28;19994;-86
2023/11/24 05:32:24;;;;;;;;;;;;;;;;;;6252942;28;20362;-85
2023/11/24 05:35:25;;;;;;;;;;;;;;;;;;6263575;28;19916;-86
2023/11/24 05:38:25;;;;;;;;;;;;;;;;;;6253307;28;19924;-85
2023/11/24 05:41:26;;;;;;;;;;;;;;;;;;6259388;28;19925;-86
2023/11/24 05:44:26;;;;;;;;;;;;;;;;;;6257145;28;19913;-84
2023/11/24 05:47:26;;;;;;;;;;;;;;;;;;6256307;28;19924;-87
2023/11/24 05:50:26;;;;;;;;;;;;;;;;;;6255659;28;19925;-86
2023/11/24 05:53:26;;;;;;;;;;;;;;;;;;6257966;28;19963;-86
2023/11/24 05:56:26;;;;;;;;;;;;;;;;;;6262484;28;19913;-86
2023/11/24 05:59:26;;;;;;;;;;;;;;;;;;6272656;28;19920;-84
2023/11/24 06:02:27;;;;;;;;;;;;;;;;;;6250924;28;19916;-84
2023/11/24 06:05:27;;;;;;;;;;;;;;;;;;6255013;28;19916;-85
2023/11/24 06:08:27;;;;;;;;;;;;;;;;;;6253160;28;19921;-85
2023/11/24 06:11:28;;;;;;;;;;;;;;;;;;6257893;28;19920;-86
2023/11/24 06:14:28;;;;;;;;;;;;;;;;;;6251096;28;19924;-84
2023/11/24 06:17:28;;;;;;;;;;;;;;;;;;6251864;28;19952;-85
2023/11/24 06:20:28;;;;;;;;;;;;;;;;;;6250384;28;20399;-86
2023/11/24 06:23:28;;;;;;;;;;;;;;;;;;6259309;28;19939;-86
2023/11/24 06:26:37;;;;;;;;;;;;;;;;;;6325531;27;20026;-87
2023/11/24 06:29:38;;;;;;;;;;;;;;;;;;6324617;28;19973;-87
2023/11/24 06:32:38;;;;;;;;;;;;;;;;;;6327814;28;19912;-87
2023/11/24 06:35:38;;;;;;;;;;;;;;;;;;6319887;28;19922;-86
2023/11/24 06:38:40;;;;;;;;;;;;;;;;;;6323022;28;19912;-86
2023/11/24 06:41:41;;;;;;;;;;;;;;;;;;6320932;28;20063;-87
2023/11/24 06:44:42;;;;;;;;;;;;;;;;;;6356177;27;19994;-86
2023/11/24 06:47:42;;;;;;;;;;;;;;;;;;6320665;28;19920;-87
2023/11/24 06:50:42;;;;;;;;;;;;;;;;;;6324224;28;20278;-87
2023/11/24 06:53:42;;;;;;;;;;;;;;;;;;6321792;28;19927;-86
2023/11/24 06:56:43;;;;;;;;;;;;;;;;;;6343296;27;19920;-86
2023/11/24 06:59:43;;;;;;;;;;;;;;;;;;6319467;28;19913;-88
2023/11/24 07:02:43;;;;;;;;;;;;;;;;;;6323913;28;19917;-87
2023/11/24 07:05:44;;;;;;;;;;;;;;;;;;6326064;28;20427;-87
2023/11/24 07:08:44;;;;;;;;;;;;;;;;;;6325781;28;19912;-87
2023/11/24 07:11:47;;;;;;;;;;;;;;;;;;6326014;28;20003;-86
2023/11/24 07:14:47;;;;;;;;;;;;;;;;;;6321835;28;20490;-87
2023/11/24 07:17:48;;;;;;;;;;;;;;;;;;6321218;28;19913;-87
2023/11/24 07:20:48;;;;;;;;;;;;;;;;;;6329204;28;20043;-87
2023/11/24 07:23:48;;;;;;;;;;;;;;;;;;6322935;28;19926;-88
2023/11/24 07:26:49;;;;;;;;;;;;;;;;;;6322300;28;20439;-87
2023/11/24 07:29:49;;;;;;;;;;;;;;;;;;6322311;28;20313;-87
2023/11/24 07:32:50;;;;;;;;;;;;;;;;;;6320121;28;20366;-87
2023/11/24 07:35:50;;;;;;;;;;;;;;;;;;6347250;27;19971;-88
2023/11/24 07:38:50;;;;;;;;;;;;;;;;;;6308763;28;19941;-86
2023/11/24 07:41:50;;;;;;;;;;;;;;;;;;6299183;28;20003;-87
2023/11/24 07:44:50;;;;;;;;;;;;;;;;;;6303005;28;19928;-87
2023/11/24 07:47:50;;;;;;;;;;;;;;;;;;6312393;28;20054;-85
2023/11/24 07:50:51;;;;;;;;;;;;;;;;;;6298512;28;19913;-86
2023/11/24 07:53:51;;;;;;;;;;;;;;;;;;6304824;28;19913;-85
2023/11/24 07:56:51;;;;;;;;;;;;;;;;;;6304041;28;19993;-85
2023/11/24 07:59:51;;;;;;;;;;;;;;;;;;6334845;27;19912;-85
2023/11/24 08:02:51;;;;;;;;;;;;;;;;;;6337631;27;19971;-86
2023/11/24 08:05:52;;;;;;;;;;;;;;;;;;6304439;28;20015;-85
2023/11/24 08:08:52;;;;;;;;;;;;;;;;;;6310933;28;19962;-85
2023/11/24 08:11:52;;;;;;;;;;;;;;;;;;6307764;28;19926;-85
2023/11/24 08:14:53;;;;;;;;;;;;;;;;;;6344770;27;19928;-85
2023/11/24 08:17:53;;;;;;;;;;;;;;;;;;6305093;28;19920;-85
2023/11/24 08:20:53;;;;;;;;;;;;;;;;;;6320851;27;20381;-84
2023/11/24 08:23:54;;;;;;;;;;;;;;;;;;6318695;28;19932;-86
2023/11/24 08:26:54;;;;;;;;;;;;;;;;;;6307778;28;20316;-84
2023/11/24 08:29:54;;;;;;;;;;;;;;;;;;6313622;28;20427;-84
2023/11/24 08:32:54;;;;;;;;;;;;;;;;;;6326228;28;19993;-85
2023/11/24 08:35:55;;;;;;;;;;;;;;;;;;6315296;28;19965;-84
2023/11/24 08:38:55;;;;;;;;;;;;;;;;;;6315885;28;19912;-85
2023/11/24 08:41:55;;;;;;;;;;;;;;;;;;6316737;28;19916;-85
2023/11/24 08:44:55;;;;;;;;;;;;;;;;;;6307377;28;19913;-84
2023/11/24 08:47:55;;;;;;;;;;;;;;;;;;6297603;28;19916;-85
2023/11/24 08:50:55;;;;;;;;;;;;;;;;;;6299911;28;19987;-85
2023/11/24 08:53:56;;;;;;;;;;;;;;;;;;6322521;28;20284;-86
2023/11/24 08:56:56;;;;;;;;;;;;;;;;;;6301110;28;20320;-85
2023/11/24 08:59:57;;;;;;;;;;;;;;;;;;6302704;28;19977;-86
2023/11/24 09:02:59;;;;;;;;;;;;;;;;;;6302154;28;19927;-84
2023/11/24 09:06:00;;;;;;;;;;;;;;;;;;6296498;28;19924;-84
2023/11/24 09:09:00;;;;;;;;;;;;;;;;;;6298498;28;20017;-84
2023/11/24 09:12:00;;;;;;;;;;;;;;;;;;6298653;28;19920;-85
2023/11/24 09:15:05;;;;;;;;;;;;;;;;;;6304348;28;19920;-85
2023/11/24 09:18:05;;;;;;;;;;;;;;;;;;6336333;27;19919;-86
2023/11/24 09:21:09;;;;;;;;;;;;;;;;;;6337356;27;20304;-84
2023/11/24 09:24:11;;;;;;;;;;;;;;;;;;6300692;28;20377;-84
2023/11/24 09:27:12;;;;;;;;;;;;;;;;;;6296754;28;19973;-80
2023/11/24 09:30:12;;;;;;;;;;;;;;;;;;6304377;28;19916;-87
2023/11/24 09:33:13;;;;;;;;;;;;;;;;;;6308229;28;19917;-88
2023/11/24 09:36:14;;;;;;;;;;;;;;;;;;6300093;28;19912;-87
2023/11/24 09:39:17;;;;;;;;;;;;;;;;;;6309701;28;20008;-88
2023/11/24 09:42:17;;;;;;;;;;;;;;;;;;6299997;28;20417;-88
2023/11/24 09:45:17;;;;;;;;;;;;;;;;;;6334732;27;19924;-88
2023/11/24 09:48:17;;;;;;;;;;;;;;;;;;6300953;28;19924;-88
2023/11/24 09:51:17;;;;;;;;;;;;;;;;;;6308174;28;19937;-89
2023/11/24 09:54:17;;;;;;;;;;;;;;;;;;6303447;28;19912;-87
2023/11/24 09:57:17;;;;;;;;;;;;;;;;;;6298038;28;19959;-87
2023/11/24 10:00:19;;;;;;;;;;;;;;;;;;6302151;28;19916;-86
2023/11/24 10:03:19;;;;;;;;;;;;;;;;;;6299823;28;19913;-88
2023/11/24 10:06:19;;;;;;;;;;;;;;;;;;6302295;28;20561;-85
2023/11/24 10:09:20;;;;;;;;;;;;;;;;;;6304245;28;20373;-85
2023/11/24 10:12:20;;;;;;;;;;;;;;;;;;6300832;28;19912;-87
2023/11/24 10:15:21;;;;;;;;;;;;;;;;;;6300079;28;19912;-87
2023/11/24 10:18:21;;;;;;;;;;;;;;;;;;6332812;28;19912;-86
2023/11/24 10:21:21;;;;;;;;;;;;;;;;;;6302880;28;20350;-86
2023/11/24 10:24:22;;;;;;;;;;;;;;;;;;6300266;28;20376;-86
2023/11/24 10:27:23;;;;;;;;;;;;;;;;;;6311061;28;19916;-87
2023/11/24 10:30:23;;;;;;;;;;;;;;;;;;6305117;28;20368;-88
2023/11/24 10:33:24;;;;;;;;;;;;;;;;;;6302484;28;20021;-87
2023/11/24 10:36:24;;;;;;;;;;;;;;;;;;6300281;28;19928;-87
2023/11/24 10:39:25;;;;;;;;;;;;;;;;;;6303939;28;19916;-87
2023/11/24 10:42:25;;;;;;;;;;;;;;;;;;6292946;28;19912;-87
2023/11/24 10:45:25;;;;;;;;;;;;;;;;;;6305794;28;19960;-87
2023/11/24 10:48:26;;;;;;;;;;;;;;;;;;6300779;28;20428;-88
2023/11/24 10:51:27;;;;;;;;;;;;;;;;;;6297274;28;19913;-88
2023/11/24 10:54:27;;;;;;;;;;;;;;;;;;6333184;28;20281;-87
2023/11/24 10:57:27;;;;;;;;;;;;;;;;;;6301680;28;19963;-88
2023/11/24 11:00:28;;;;;;;;;;;;;;;;;;6302698;28;20048;-88
2023/11/24 11:03:28;;;;;;;;;;;;;;;;;;6299542;28;19917;-87
2023/11/24 11:06:29;;;;;;;;;;;;;;;;;;6300737;28;19920;-86
2023/11/24 11:09:47;;;;;;;;;;;;;;;;;;6298977;28;19927;-85
2023/11/24 11:12:49;;;;;;;;;;;;;;;;;;6302042;28;20393;-85
2023/11/24 11:15:50;;;;;;;;;;;;;;;;;;6308644;28;19916;-85
2023/11/24 11:18:51;;;;;;;;;;;;;;;;;;6309306;28;19965;-87
2023/11/24 11:21:55;;;;;;;;;;;;;;;;;;6310058;28;19912;-87
2023/11/24 11:24:55;;;;;;;;;;;;;;;;;;6320986;28;19924;-88
2023/11/24 11:27:56;;;;;;;;;;;;;;;;;;6319649;28;19965;-87
2023/11/24 11:30:57;;;;;;;;;;;;;;;;;;6309367;28;19919;-88
2023/11/24 11:33:57;;;;;;;;;;;;;;;;;;6307361;28;19919;-87
2023/11/24 11:36:57;;;;;;;;;;;;;;;;;;6302070;28;19913;-87
2023/11/24 11:39:58;;;;;;;;;;;;;;;;;;6313673;28;19923;-86
2023/11/24 11:42:59;;;;;;;;;;;;;;;;;;6314223;28;20292;-87
2023/11/24 11:46:03;;;;;;;;;;;;;;;;;;6304550;28;19924;-87
2023/11/24 11:49:08;;;;;;;;;;;;;;;;;;6303135;28;19921;-87
2023/11/24 11:52:11;;;;;;;;;;;;;;;;;;6299538;28;19921;-87
2023/11/24 11:55:11;;;;;;;;;;;;;;;;;;6307581;28;19935;-87
2023/11/24 11:58:11;;;;;;;;;;;;;;;;;;6310137;28;19912;-87
2023/11/24 12:01:13;;;;;;;;;;;;;;;;;;6304417;28;19912;-87
2023/11/24 12:04:13;;;;;;;;;;;;;;;;;;6306467;28;19929;-87
2023/11/24 12:07:14;;;;;;;;;;;;;;;;;;6303643;28;20007;-88
2023/11/24 12:10:15;;;;;;;;;;;;;;;;;;6336399;27;20055;-87
2023/11/24 12:13:15;;;;;;;;;;;;;;;;;;6305086;28;19912;-87
2023/11/24 12:16:15;;;;;;;;;;;;;;;;;;6305469;28;19912;-87
2023/11/24 12:19:15;;;;;;;;;;;;;;;;;;6305858;28;20285;-87
2023/11/24 12:22:18;;;;;;;;;;;;;;;;;;6299051;28;19912;-88
2023/11/24 12:25:18;;;;;;;;;;;;;;;;;;6298924;28;19924;-87
2023/11/24 12:28:18;;;;;;;;;;;;;;;;;;6306610;28;19935;-87
2023/11/24 12:31:18;;;;;;;;;;;;;;;;;;6304596;28;20308;-87
2023/11/24 12:34:20;;;;;;;;;;;;;;;;;;6302617;28;19920;-87
2023/11/24 12:37:20;;;;;;;;;;;;;;;;;;6303222;28;19958;-87
2023/11/24 12:40:22;;;;;;;;;;;;;;;;;;6337057;27;19912;-87
2023/11/24 12:43:22;;;;;;;;;;;;;;;;;;6302561;28;19916;-87
2023/11/24 12:46:23;;;;;;;;;;;;;;;;;;6310481;28;19969;-87
2023/11/24 12:49:23;;;;;;;;;;;;;;;;;;6307441;28;19922;-86
2023/11/24 12:52:23;;;;;;;;;;;;;;;;;;6306119;28;19917;-87
2023/11/24 12:55:24;;;;;;;;;;;;;;;;;;6319916;28;19939;-87
2023/11/24 12:58:24;;;;;;;;;;;;;;;;;;6333941;27;19920;-87
2023/11/24 13:01:25;;;;;;;;;;;;;;;;;;6299805;28;19939;-87
2023/11/24 13:04:25;;;;;;;;;;;;;;;;;;6303520;28;19920;-87
2023/11/24 13:07:26;;;;;;;;;;;;;;;;;;6300896;28;19965;-87
2023/11/24 13:10:27;;;;;;;;;;;;;;;;;;6306963;28;19970;-87
2023/11/24 13:13:27;;;;;;;;;;;;;;;;;;6313946;28;20000;-87
2023/11/24 13:16:27;;;;;;;;;;;;;;;;;;6303251;28;20300;-87
2023/11/24 13:19:28;;;;;;;;;;;;;;;;;;6309375;28;20440;-86
2023/11/24 13:22:28;;;;;;;;;;;;;;;;;;6303897;28;20357;-87
2023/11/24 13:25:29;;;;;;;;;;;;;;;;;;6305001;28;19924;-87
2023/11/24 13:28:29;;;;;;;;;;;;;;;;;;6323762;28;19973;-85
2023/11/24 13:31:29;;;;;;;;;;;;;;;;;;6304161;28;19920;-87
2023/11/24 13:34:29;;;;;;;;;;;;;;;;;;6308462;28;19916;-87
2023/11/24 13:37:30;;;;;;;;;;;;;;;;;;6304562;28;19927;-86
2023/11/24 13:40:31;;;;;;;;;;;;;;;;;;6304697;28;19912;-87
2023/11/24 13:43:31;;;;;;;;;;;;;;;;;;6305139;28;20389;-87
2023/11/24 13:46:33;;;;;;;;;;;;;;;;;;6304972;28;19943;-87
2023/11/24 13:49:33;;;;;;;;;;;;;;;;;;6305015;28;19919;-87
2023/11/24 13:52:33;;;;;;;;;;;;;;;;;;6303630;28;19920;-87
2023/11/24 13:55:36;;;;;;;;;;;;;;;;;;6301419;28;19917;-87
2023/11/24 13:58:38;;;;;;;;;;;;;;;;;;6305517;28;19912;-87
2023/11/24 14:01:39;;;;;;;;;;;;;;;;;;6302224;28;19919;-87
2023/11/24 14:04:39;;;;;;;;;;;;;;;;;;6298189;28;20377;-88
2023/11/24 14:07:39;;;;;;;;;;;;;;;;;;6304212;28;19916;-87
2023/11/24 14:10:39;;;;;;;;;;;;;;;;;;6330640;27;19920;-87
2023/11/24 14:13:40;;;;;;;;;;;;;;;;;;6301015;28;20373;-87
2023/11/24 14:16:40;;;;;;;;;;;;;;;;;;6303533;28;19920;-86
2023/11/24 14:19:40;;;;;;;;;;;;;;;;;;6298671;28;19918;-88
2023/11/24 14:22:41;;;;;;;;;;;;;;;;;;6300569;28;20350;-87
2023/11/24 14:25:41;;;;;;;;;;;;;;;;;;6296757;28;19920;-89
2023/11/24 14:28:41;;;;;;;;;;;;;;;;;;6302207;28;19913;-88
2023/11/24 14:31:42;;;;;;;;;;;;;;;;;;6304802;28;19912;-87
2023/11/24 14:34:42;;;;;;;;;;;;;;;;;;6302576;28;19919;-89
2023/11/24 14:37:42;;;;;;;;;;;;;;;;;;6301642;28;20019;-88
2023/11/24 14:40:42;;;;;;;;;;;;;;;;;;6304678;28;19912;-87
2023/11/24 14:43:42;;;;;;;;;;;;;;;;;;6333373;28;19920;-88
2023/11/24 14:46:43;;;;;;;;;;;;;;;;;;6299982;28;20020;-91
2023/11/24 14:49:43;;;;;;;;;;;;;;;;;;6302195;28;20014;-86
2023/11/24 14:52:43;;;;;;;;;;;;;;;;;;6339722;27;20005;-87
2023/11/24 14:55:44;;;;;;;;;;;;;;;;;;6312325;28;20062;-86
2023/11/24 14:58:45;;;;;;;;;;;;;;;;;;6305594;28;19951;-85
2023/11/24 15:01:45;;;;;;;;;;;;;;;;;;6306277;28;20126;-84
2023/11/24 15:04:46;;;;;;;;;;;;;;;;;;6303756;28;20368;-86
2023/11/24 15:07:47;;;;;;;;;;;;;;;;;;6302891;28;19919;-83
2023/11/24 15:10:47;;;;;;;;;;;;;;;;;;6308014;28;19991;-83
2023/11/24 15:13:53;;;;;;;;;;;;;;;;;;6308358;28;19967;-84
2023/11/24 15:17:02;;;;;;;;;;;;;;;;;;6305138;28;19956;-87
2023/11/24 15:20:04;;;;;;;;;;;;;;;;;;6301524;28;20015;-84
2023/11/24 15:23:05;;;;;;;;;;;;;;;;;;6309351;28;19920;-87
2023/11/24 15:26:05;;;;;;;;;;;;;;;;;;6308553;28;19927;-86
2023/11/24 15:29:06;;;;;;;;;;;;;;;;;;6309011;28;19919;-85
2023/11/24 15:32:09;;;;;;;;;;;;;;;;;;6313671;28;19919;-85
2023/11/24 15:35:09;;;;;;;;;;;;;;;;;;6303809;28;19920;-86
2023/11/24 15:38:09;;;;;;;;;;;;;;;;;;6310017;28;19974;-85
2023/11/24 15:41:09;;;;;;;;;;;;;;;;;;6300750;28;19913;-86
2023/11/24 15:44:10;;;;;;;;;;;;;;;;;;6309722;28;20380;-86
2023/11/24 15:47:10;;;;;;;;;;;;;;;;;;6301357;28;19955;-86
2023/11/24 15:50:12;;;;;;;;;;;;;;;;;;6302367;28;19919;-86
2023/11/24 15:53:13;;;;;;;;;;;;;;;;;;6303746;28;20299;-86
2023/11/24 15:56:17;;;;;;;;;;;;;;;;;;6316378;28;19912;-86
2023/11/24 15:59:22;;;;;;;;;;;;;;;;;;6314231;28;19919;-87
2023/11/24 16:02:25;;;;;;;;;;;;;;;;;;6307007;28;19916;-87
2023/11/24 16:05:32;;;;;;;;;;;;;;;;;;6299260;28;19920;-87
2023/11/24 16:08:42;;;;;;;;;;;;;;;;;;6303419;28;19955;-86
2023/11/24 16:11:46;;;;;;;;;;;;;;;;;;6335989;27;20025;-87
2023/11/24 16:14:47;;;;;;;;;;;;;;;;;;6308249;28;19919;-87
2023/11/24 16:17:50;;;;;;;;;;;;;;;;;;6304849;28;19913;-86
2023/11/24 16:20:50;;;;;;;;;;;;;;;;;;6303581;28;19947;-86
2023/11/24 16:23:51;;;;;;;;;;;;;;;;;;6304539;28;19924;-86
2023/11/24 16:26:54;;;;;;;;;;;;;;;;;;6304687;28;19928;-86
2023/11/24 16:29:54;;;;;;;;;;;;;;;;;;6299365;28;19951;-87
2023/11/24 16:32:54;;;;;;;;;;;;;;;;;;6299630;28;19917;-85
2023/11/24 16:35:55;;;;;;;;;;;;;;;;;;6310104;28;19945;-85
2023/11/24 16:38:55;;;;;;;;;;;;;;;;;;6303427;28;19916;-85
2023/11/24 16:41:57;;;;;;;;;;;;;;;;;;6305448;28;19944;-84
2023/11/24 16:44:57;;;;;;;;;;;;;;;;;;6298744;28;19924;-84
2023/11/24 16:47:57;;;;;;;;;;;;;;;;;;6303201;28;19912;-84
2023/11/24 16:50:57;;;;;;;;;;;;;;;;;;6298046;28;19931;-85
2023/11/24 16:53:57;;;;;;;;;;;;;;;;;;6301283;28;19912;-83
2023/11/24 16:56:57;;;;;;;;;;;;;;;;;;6301516;28;19912;-84
2023/11/24 16:59:58;;;;;;;;;;;;;;;;;;6303285;28;20412;-83
2023/11/24 17:02:58;;;;;;;;;;;;;;;;;;6300060;28;20449;-83
2023/11/24 17:05:58;;;;;;;;;;;;;;;;;;6300373;28;19928;-83
2023/11/24 17:08:58;;;;;;;;;;;;;;;;;;6299086;28;19916;-83
2023/11/24 17:11:58;;;;;;;;;;;;;;;;;;6301280;28;19913;-83
2023/11/24 17:14:59;;;;;;;;;;;;;;;;;;6330944;27;20398;-82
2023/11/24 17:18:01;;;;;;;;;;;;;;;;;;6296724;28;20004;-84
2023/11/24 17:21:01;;;;;;;;;;;;;;;;;;6302081;28;21102;-86
2023/11/24 17:24:01;;;;;;;;;;;;;;;;;;6307011;28;19971;-83
2023/11/24 17:27:01;;;;;;;;;;;;;;;;;;6300903;28;19959;-86
2023/11/24 17:30:05;;;;;;;;;;;;;;;;;;6318343;27;19952;-85
2023/11/24 17:33:05;;;;;;;;;;;;;;;;;;6303862;28;19916;-85
2023/11/24 17:36:07;;;;;;;;;;;;;;;;;;6314147;28;20251;-83
2023/11/24 17:39:08;;;;;;;;;;;;;;;;;;6333988;27;19966;-84
2023/11/24 17:42:09;;;;;;;;;;;;;;;;;;6297363;28;19912;-82
2023/11/24 17:45:15;;;;;;;;;;;;;;;;;;6301535;28;19923;-80
2023/11/24 17:48:17;;;;;;;;;;;;;;;;;;6306530;28;19923;-87
2023/11/24 17:51:18;;;;;;;;;;;;;;;;;;6302666;28;19912;-88
2023/11/24 17:54:18;;;;;;;;;;;;;;;;;;6321026;28;19966;-87
2023/11/24 17:57:19;;;;;;;;;;;;;;;;;;6304274;28;19930;-88
2023/11/24 18:00:22;;;;;;;;;;;;;;;;;;6299245;28;19912;-88
2023/11/24 18:03:23;;;;;;;;;;;;;;;;;;6306501;28;19952;-86
2023/11/24 18:06:25;;;;;;;;;;;;;;;;;;6302892;28;19924;-88
2023/11/24 18:09:25;;;;;;;;;;;;;;;;;;6305034;28;19917;-90
2023/11/24 18:12:28;;;;;;;;;;;;;;;;;;6305235;28;19918;-81
2023/11/24 18:15:28;;;;;;;;;;;;;;;;;;6297840;28;19916;-82
2023/11/24 18:18:28;;;;;;;;;;;;;;;;;;6299497;28;19943;-90
2023/11/24 18:21:28;;;;;;;;;;;;;;;;;;6306078;28;20373;-89
2023/11/24 18:24:28;;;;;;;;;;;;;;;;;;6303175;28;20384;-89
2023/11/24 18:27:28;;;;;;;;;;;;;;;;;;6301794;28;19912;-90
2023/11/24 18:30:28;;;;;;;;;;;;;;;;;;6311161;28;19912;-89
2023/11/24 18:33:29;;;;;;;;;;;;;;;;;;6317065;28;19912;-89
2023/11/24 18:36:29;;;;;;;;;;;;;;;;;;6306370;28;19912;-89
2023/11/24 18:39:30;;;;;;;;;;;;;;;;;;6302458;28;20000;-90
2023/11/24 18:42:30;;;;;;;;;;;;;;;;;;6303951;28;19916;-89
2023/11/24 18:45:30;;;;;;;;;;;;;;;;;;6307060;28;19920;-89
2023/11/24 18:48:31;;;;;;;;;;;;;;;;;;6303650;28;19934;-89
2023/11/24 18:51:32;;;;;;;;;;;;;;;;;;6308086;28;19951;-92
2023/11/24 18:54:32;;;;;;;;;;;;;;;;;;6303192;28;19937;-91
2023/11/24 18:57:32;;;;;;;;;;;;;;;;;;6303387;28;19913;-91
2023/11/24 19:00:32;;;;;;;;;;;;;;;;;;6307243;28;19920;-91
2023/11/24 19:03:32;;;;;;;;;;;;;;;;;;6301733;28;19913;-90
2023/11/24 19:06:33;;;;;;;;;;;;;;;;;;6308626;28;19920;-89
2023/11/24 19:09:33;;;;;;;;;;;;;;;;;;6299796;28;19912;-91
2023/11/24 19:12:33;;;;;;;;;;;;;;;;;;6302529;28;20057;-89
2023/11/24 19:15:34;;;;;;;;;;;;;;;;;;6329317;28;19923;-88
2023/11/24 19:18:34;;;;;;;;;;;;;;;;;;6302159;28;20373;-88
2023/11/24 19:21:34;;;;;;;;;;;;;;;;;;6331640;28;19917;-89
2023/11/24 19:24:34;;;;;;;;;;;;;;;;;;6307915;28;19928;-89
2023/11/24 19:27:35;;;;;;;;;;;;;;;;;;6308984;28;19951;-88
2023/11/24 19:30:36;;;;;;;;;;;;;;;;;;6299408;28;19916;-88
2023/11/24 19:33:36;;;;;;;;;;;;;;;;;;6309065;28;19912;-89
2023/11/24 19:36:37;;;;;;;;;;;;;;;;;;6310752;28;19912;-90
2023/11/24 19:39:37;;;;;;;;;;;;;;;;;;6309482;28;19916;-89
2023/11/24 19:42:37;;;;;;;;;;;;;;;;;;6339861;27;19920;-89
2023/11/24 19:45:37;;;;;;;;;;;;;;;;;;6303965;28;19920;-89
2023/11/24 19:48:38;;;;;;;;;;;;;;;;;;6306131;28;19973;-89
2023/11/24 19:51:38;;;;;;;;;;;;;;;;;;6337824;27;19913;-89
2023/11/24 19:54:38;;;;;;;;;;;;;;;;;;6304871;28;19913;-89
2023/11/24 19:57:38;;;;;;;;;;;;;;;;;;6313291;28;19916;-89
2023/11/24 20:00:38;;;;;;;;;;;;;;;;;;6305712;28;19909;-90
2023/11/24 20:03:38;;;;;;;;;;;;;;;;;;6302690;28;19958;-89
2023/11/24 20:06:38;;;;;;;;;;;;;;;;;;6320785;28;19920;-90
2023/11/24 20:09:39;;;;;;;;;;;;;;;;;;6308721;28;19912;-90
2023/11/24 20:12:39;;;;;;;;;;;;;;;;;;6343285;27;20047;-89
2023/11/24 20:15:40;;;;;;;;;;;;;;;;;;6304077;28;20043;-86
2023/11/24 20:18:44;;;;;;;;;;;;;;;;;;6311398;28;19987;-90
2023/11/24 20:21:44;;;;;;;;;;;;;;;;;;6306512;28;19916;-89
2023/11/24 20:24:46;;;;;;;;;;;;;;;;;;6305083;28;19985;-89
2023/11/24 20:27:46;;;;;;;;;;;;;;;;;;6305327;28;19912;-90
2023/11/24 20:30:46;;;;;;;;;;;;;;;;;;6308873;28;19964;-89
2023/11/24 20:33:50;;;;;;;;;;;;;;;;;;6304598;28;19913;-89